sensor_id;sensor_type;location;lat;lon;timestamp;temperature;humidity
10437;DHT22;5265;50.006;9.202;2022-10-16T00:01:45;14.80;99.90
10437;DHT22;5265;50.006;9.202;2022-10-16T00:04:13;14.80;99.90
10437;DHT22;5265;50.006;9.202;2022-10-16T00:06:40;14.70;99.90
10437;DHT22;5265;50.006;9.202;2022-10-16T00:09:08;14.70;99.90
10437;DHT22;5265;50.006;9.202;2022-10-16T00:11:37;14.80;99.90
10437;DHT22;5265;50.006;9.202;2022-10-16T00:14:05;14.80;99.90
10437;DHT22;5265;50.006;9.202;2022-10-16T00:16:33;14.80;99.90
10437;DHT22;5265;50.006;9.202;2022-10-16T00:19:00;14.80;99.90
10437;DHT22;5265;50.006;9.202;2022-10-16T00:21:28;14.70;99.90
10437;DHT22;5265;50.006;9.202;2022-10-16T00:23:56;14.80;99.90
10437;DHT22;5265;50.006;9.202;2022-10-16T00:26:26;14.70;99.90
10437;DHT22;5265;50.006;9.202;2022-10-16T00:28:53;14.70;99.90
10437;DHT22;5265;50.006;9.202;2022-10-16T00:31:21;14.70;99.90
10437;DHT22;5265;50.006;9.202;2022-10-16T00:33:49;14.70;99.90
10437;DHT22;5265;50.006;9.202;2022-10-16T00:36:17;14.70;99.90
10437;DHT22;5265;50.006;9.202;2022-10-16T00:38:44;14.70;99.90
10437;DHT22;5265;50.006;9.202;2022-10-16T00:41:12;14.70;99.90
10437;DHT22;5265;50.006;9.202;2022-10-16T00:43:42;14.70;1.00
10437;DHT22;5265;50.006;9.202;2022-10-16T00:46:12;14.60;1.00
10437;DHT22;5265;50.006;9.202;2022-10-16T00:48:40;14.70;1.00
10437;DHT22;5265;50.006;9.202;2022-10-16T00:51:07;14.70;1.00
10437;DHT22;5265;50.006;9.202;2022-10-16T00:53:34;14.70;1.00
10437;DHT22;5265;50.006;9.202;2022-10-16T00:56:02;14.80;1.00
10437;DHT22;5265;50.006;9.202;2022-10-16T00:58:30;14.80;1.00
10437;DHT22;5265;50.006;9.202;2022-10-16T01:00:58;14.80;1.00
10437;DHT22;5265;50.006;9.202;2022-10-16T01:03:27;14.90;1.00
10437;DHT22;5265;50.006;9.202;2022-10-16T01:05:58;14.80;99.90
10437;DHT22;5265;50.006;9.202;2022-10-16T01:08:28;14.80;99.90
10437;DHT22;5265;50.006;9.202;2022-10-16T01:10:59;14.80;99.90
10437;DHT22;5265;50.006;9.202;2022-10-16T01:13:32;14.80;99.90
10437;DHT22;5265;50.006;9.202;2022-10-16T01:16:05;14.80;1.00
10437;DHT22;5265;50.006;9.202;2022-10-16T01:18:33;14.80;1.00
10437;DHT22;5265;50.006;9.202;2022-10-16T01:21:02;14.80;1.00
10437;DHT22;5265;50.006;9.202;2022-10-16T01:23:35;14.70;1.00
10437;DHT22;5265;50.006;9.202;2022-10-16T01:28:57;14.80;1.00
10437;DHT22;5265;50.006;9.202;2022-10-16T01:31:29;14.80;1.00
10437;DHT22;5265;50.006;9.202;2022-10-16T01:33:59;14.80;99.90
10437;DHT22;5265;50.006;9.202;2022-10-16T01:36:29;14.80;99.90
10437;DHT22;5265;50.006;9.202;2022-10-16T01:38:59;14.70;99.90
10437;DHT22;5265;50.006;9.202;2022-10-16T01:41:29;14.70;99.90
10437;DHT22;5265;50.006;9.202;2022-10-16T01:44:01;14.70;99.90
10437;DHT22;5265;50.006;9.202;2022-10-16T01:46:29;14.70;99.90
10437;DHT22;5265;50.006;9.202;2022-10-16T01:48:57;14.70;1.00
10437;DHT22;5265;50.006;9.202;2022-10-16T01:51:25;14.70;1.00
10437;DHT22;5265;50.006;9.202;2022-10-16T01:53:54;14.70;1.00
10437;DHT22;5265;50.006;9.202;2022-10-16T01:56:22;14.80;1.00
10437;DHT22;5265;50.006;9.202;2022-10-16T01:58:52;14.80;1.00
10437;DHT22;5265;50.006;9.202;2022-10-16T02:01:21;14.90;1.00
10437;DHT22;5265;50.006;9.202;2022-10-16T02:03:50;14.80;1.00
10437;DHT22;5265;50.006;9.202;2022-10-16T02:06:18;14.80;1.00
10437;DHT22;5265;50.006;9.202;2022-10-16T02:08:45;14.80;1.00
10437;DHT22;5265;50.006;9.202;2022-10-16T02:11:13;14.80;1.00
10437;DHT22;5265;50.006;9.202;2022-10-16T02:13:41;14.80;1.00
10437;DHT22;5265;50.006;9.202;2022-10-16T02:16:10;14.90;1.00
10437;DHT22;5265;50.006;9.202;2022-10-16T02:18:39;14.90;1.00
10437;DHT22;5265;50.006;9.202;2022-10-16T02:21:07;14.80;1.00
10437;DHT22;5265;50.006;9.202;2022-10-16T02:23:40;14.80;1.00
10437;DHT22;5265;50.006;9.202;2022-10-16T02:26:11;14.80;1.00
10437;DHT22;5265;50.006;9.202;2022-10-16T02:28:40;14.80;1.00
10437;DHT22;5265;50.006;9.202;2022-10-16T02:31:09;14.80;1.00
10437;DHT22;5265;50.006;9.202;2022-10-16T02:33:39;14.90;1.00
10437;DHT22;5265;50.006;9.202;2022-10-16T02:36:07;14.80;1.00
10437;DHT22;5265;50.006;9.202;2022-10-16T02:38:34;14.80;1.00
10437;DHT22;5265;50.006;9.202;2022-10-16T02:41:03;14.80;1.00
10437;DHT22;5265;50.006;9.202;2022-10-16T02:43:30;14.80;1.00
10437;DHT22;5265;50.006;9.202;2022-10-16T02:45:57;14.80;1.00
10437;DHT22;5265;50.006;9.202;2022-10-16T02:48:25;14.80;1.00
10437;DHT22;5265;50.006;9.202;2022-10-16T02:50:54;14.80;1.00
10437;DHT22;5265;50.006;9.202;2022-10-16T02:53:22;14.90;1.00
10437;DHT22;5265;50.006;9.202;2022-10-16T02:55:50;14.80;1.00
10437;DHT22;5265;50.006;9.202;2022-10-16T02:58:17;14.80;1.00
10437;DHT22;5265;50.006;9.202;2022-10-16T03:00:44;14.80;1.00
10437;DHT22;5265;50.006;9.202;2022-10-16T03:03:11;14.80;1.00
10437;DHT22;5265;50.006;9.202;2022-10-16T03:05:38;14.80;1.00
10437;DHT22;5265;50.006;9.202;2022-10-16T03:08:07;14.80;1.00
10437;DHT22;5265;50.006;9.202;2022-10-16T03:10:34;14.80;1.00
10437;DHT22;5265;50.006;9.202;2022-10-16T03:13:01;15.00;1.00
10437;DHT22;5265;50.006;9.202;2022-10-16T03:15:28;14.90;1.00
10437;DHT22;5265;50.006;9.202;2022-10-16T03:17:57;14.90;1.00
10437;DHT22;5265;50.006;9.202;2022-10-16T03:20:24;14.80;99.90
10437;DHT22;5265;50.006;9.202;2022-10-16T03:22:53;14.80;1.00
10437;DHT22;5265;50.006;9.202;2022-10-16T03:25:21;14.90;1.00
10437;DHT22;5265;50.006;9.202;2022-10-16T03:27:49;14.80;1.00
10437;DHT22;5265;50.006;9.202;2022-10-16T03:30:16;14.80;1.00
10437;DHT22;5265;50.006;9.202;2022-10-16T03:32:43;14.80;1.00
10437;DHT22;5265;50.006;9.202;2022-10-16T03:35:10;14.80;1.00
10437;DHT22;5265;50.006;9.202;2022-10-16T03:37:37;14.80;1.00
10437;DHT22;5265;50.006;9.202;2022-10-16T03:40:06;14.80;1.00
10437;DHT22;5265;50.006;9.202;2022-10-16T03:42:34;14.80;1.00
10437;DHT22;5265;50.006;9.202;2022-10-16T03:45:02;14.80;1.00
10437;DHT22;5265;50.006;9.202;2022-10-16T03:47:29;14.80;1.00
10437;DHT22;5265;50.006;9.202;2022-10-16T03:49:58;14.80;1.00
10437;DHT22;5265;50.006;9.202;2022-10-16T03:52:26;14.80;1.00
10437;DHT22;5265;50.006;9.202;2022-10-16T03:54:53;14.80;1.00
10437;DHT22;5265;50.006;9.202;2022-10-16T03:57:20;14.90;1.00
10437;DHT22;5265;50.006;9.202;2022-10-16T03:59:49;14.90;1.00
10437;DHT22;5265;50.006;9.202;2022-10-16T04:02:16;14.80;1.00
10437;DHT22;5265;50.006;9.202;2022-10-16T04:04:43;14.80;1.00
10437;DHT22;5265;50.006;9.202;2022-10-16T04:07:10;14.80;1.00
10437;DHT22;5265;50.006;9.202;2022-10-16T04:09:37;14.90;1.00
10437;DHT22;5265;50.006;9.202;2022-10-16T04:12:05;14.80;1.00
10437;DHT22;5265;50.006;9.202;2022-10-16T04:14:32;14.80;1.00
10437;DHT22;5265;50.006;9.202;2022-10-16T04:17:01;14.90;1.00
10437;DHT22;5265;50.006;9.202;2022-10-16T04:19:28;15.00;1.00
10437;DHT22;5265;50.006;9.202;2022-10-16T04:21:55;14.90;1.00
10437;DHT22;5265;50.006;9.202;2022-10-16T04:24:22;14.90;1.00
10437;DHT22;5265;50.006;9.202;2022-10-16T04:26:49;14.90;99.90
10437;DHT22;5265;50.006;9.202;2022-10-16T04:29:16;14.90;99.90
10437;DHT22;5265;50.006;9.202;2022-10-16T04:31:43;14.90;1.00
10437;DHT22;5265;50.006;9.202;2022-10-16T04:34:12;14.90;99.90
10437;DHT22;5265;50.006;9.202;2022-10-16T04:36:39;14.90;1.00
10437;DHT22;5265;50.006;9.202;2022-10-16T04:39:06;14.80;1.00
10437;DHT22;5265;50.006;9.202;2022-10-16T04:41:33;14.80;1.00
10437;DHT22;5265;50.006;9.202;2022-10-16T04:44:00;14.80;1.00
10437;DHT22;5265;50.006;9.202;2022-10-16T04:46:28;14.80;1.00
10437;DHT22;5265;50.006;9.202;2022-10-16T04:48:55;14.80;1.00
10437;DHT22;5265;50.006;9.202;2022-10-16T04:51:23;14.80;1.00
10437;DHT22;5265;50.006;9.202;2022-10-16T04:53:51;14.80;1.00
10437;DHT22;5265;50.006;9.202;2022-10-16T04:56:18;14.80;1.00
10437;DHT22;5265;50.006;9.202;2022-10-16T04:58:46;14.90;1.00
10437;DHT22;5265;50.006;9.202;2022-10-16T05:01:13;14.90;1.00
10437;DHT22;5265;50.006;9.202;2022-10-16T05:03:40;14.90;1.00
10437;DHT22;5265;50.006;9.202;2022-10-16T05:06:07;14.90;1.00
10437;DHT22;5265;50.006;9.202;2022-10-16T05:08:37;14.90;1.00
10437;DHT22;5265;50.006;9.202;2022-10-16T05:11:04;14.90;1.00
10437;DHT22;5265;50.006;9.202;2022-10-16T05:13:31;14.80;1.00
10437;DHT22;5265;50.006;9.202;2022-10-16T05:16:00;14.90;1.00
10437;DHT22;5265;50.006;9.202;2022-10-16T05:18:27;14.80;1.00
10437;DHT22;5265;50.006;9.202;2022-10-16T05:20:54;14.80;1.00
10437;DHT22;5265;50.006;9.202;2022-10-16T05:23:21;14.80;1.00
10437;DHT22;5265;50.006;9.202;2022-10-16T05:25:54;14.80;1.00
10437;DHT22;5265;50.006;9.202;2022-10-16T05:28:23;14.80;1.00
10437;DHT22;5265;50.006;9.202;2022-10-16T05:30:50;14.80;1.00
10437;DHT22;5265;50.006;9.202;2022-10-16T05:33:19;14.80;1.00
10437;DHT22;5265;50.006;9.202;2022-10-16T05:35:46;14.80;1.00
10437;DHT22;5265;50.006;9.202;2022-10-16T05:38:13;14.80;1.00
10437;DHT22;5265;50.006;9.202;2022-10-16T05:40:40;14.80;1.00
10437;DHT22;5265;50.006;9.202;2022-10-16T05:43:09;14.80;1.00
10437;DHT22;5265;50.006;9.202;2022-10-16T05:45:36;14.90;1.00
10437;DHT22;5265;50.006;9.202;2022-10-16T05:48:03;14.90;1.00
10437;DHT22;5265;50.006;9.202;2022-10-16T05:50:30;14.90;1.00
10437;DHT22;5265;50.006;9.202;2022-10-16T05:52:58;15.00;1.00
10437;DHT22;5265;50.006;9.202;2022-10-16T05:55:25;15.00;1.00
10437;DHT22;5265;50.006;9.202;2022-10-16T05:57:54;15.00;99.90
10437;DHT22;5265;50.006;9.202;2022-10-16T06:00:22;15.00;99.90
10437;DHT22;5265;50.006;9.202;2022-10-16T06:02:49;15.00;99.90
10437;DHT22;5265;50.006;9.202;2022-10-16T06:05:16;14.90;99.90
10437;DHT22;5265;50.006;9.202;2022-10-16T06:07:43;14.80;99.90
10437;DHT22;5265;50.006;9.202;2022-10-16T06:10:11;14.80;99.90
10437;DHT22;5265;50.006;9.202;2022-10-16T06:12:38;14.80;99.90
10437;DHT22;5265;50.006;9.202;2022-10-16T06:15:05;14.80;1.00
10437;DHT22;5265;50.006;9.202;2022-10-16T06:17:34;14.80;1.00
10437;DHT22;5265;50.006;9.202;2022-10-16T06:20:01;14.80;1.00
10437;DHT22;5265;50.006;9.202;2022-10-16T06:22:28;14.80;1.00
10437;DHT22;5265;50.006;9.202;2022-10-16T06:24:55;14.80;1.00
10437;DHT22;5265;50.006;9.202;2022-10-16T06:27:22;14.80;1.00
10437;DHT22;5265;50.006;9.202;2022-10-16T06:29:49;14.80;1.00
10437;DHT22;5265;50.006;9.202;2022-10-16T06:32:16;14.80;1.00
10437;DHT22;5265;50.006;9.202;2022-10-16T06:34:45;14.90;1.00
10437;DHT22;5265;50.006;9.202;2022-10-16T06:37:12;15.00;1.00
10437;DHT22;5265;50.006;9.202;2022-10-16T06:39:39;14.90;1.00
10437;DHT22;5265;50.006;9.202;2022-10-16T06:42:07;14.90;1.00
10437;DHT22;5265;50.006;9.202;2022-10-16T06:44:35;14.90;99.90
10437;DHT22;5265;50.006;9.202;2022-10-16T06:47:02;14.90;99.90
10437;DHT22;5265;50.006;9.202;2022-10-16T06:49:29;14.90;99.90
10437;DHT22;5265;50.006;9.202;2022-10-16T06:51:58;14.90;99.90
10437;DHT22;5265;50.006;9.202;2022-10-16T06:54:24;14.90;99.90
10437;DHT22;5265;50.006;9.202;2022-10-16T06:56:52;14.90;99.90
10437;DHT22;5265;50.006;9.202;2022-10-16T06:59:20;14.90;1.00
10437;DHT22;5265;50.006;9.202;2022-10-16T07:01:47;14.90;1.00
10437;DHT22;5265;50.006;9.202;2022-10-16T07:04:14;15.00;1.00
10437;DHT22;5265;50.006;9.202;2022-10-16T07:06:41;15.00;1.00
10437;DHT22;5265;50.006;9.202;2022-10-16T07:09:10;15.00;1.00
10437;DHT22;5265;50.006;9.202;2022-10-16T07:11:38;15.00;1.00
10437;DHT22;5265;50.006;9.202;2022-10-16T07:14:09;15.10;1.00
10437;DHT22;5265;50.006;9.202;2022-10-16T07:16:39;15.20;1.00
10437;DHT22;5265;50.006;9.202;2022-10-16T07:19:06;15.10;1.00
10437;DHT22;5265;50.006;9.202;2022-10-16T07:21:34;15.20;1.00
10437;DHT22;5265;50.006;9.202;2022-10-16T07:24:04;15.20;1.00
10437;DHT22;5265;50.006;9.202;2022-10-16T07:26:34;15.20;1.00
10437;DHT22;5265;50.006;9.202;2022-10-16T07:29:02;15.30;1.00
10437;DHT22;5265;50.006;9.202;2022-10-16T07:31:29;15.30;1.00
10437;DHT22;5265;50.006;9.202;2022-10-16T07:33:57;15.30;1.00
10437;DHT22;5265;50.006;9.202;2022-10-16T07:36:24;15.40;1.00
10437;DHT22;5265;50.006;9.202;2022-10-16T07:38:51;15.40;1.00
10437;DHT22;5265;50.006;9.202;2022-10-16T07:41:19;15.40;1.00
10437;DHT22;5265;50.006;9.202;2022-10-16T07:43:48;15.50;1.00
10437;DHT22;5265;50.006;9.202;2022-10-16T07:46:16;15.60;1.00
10437;DHT22;5265;50.006;9.202;2022-10-16T07:48:43;15.70;99.90
10437;DHT22;5265;50.006;9.202;2022-10-16T07:51:13;15.70;99.90
10437;DHT22;5265;50.006;9.202;2022-10-16T07:53:40;15.80;99.90
10437;DHT22;5265;50.006;9.202;2022-10-16T07:56:08;15.90;99.90
10437;DHT22;5265;50.006;9.202;2022-10-16T07:58:35;15.90;96.20
10437;DHT22;5265;50.006;9.202;2022-10-16T08:01:05;15.80;1.00
10437;DHT22;5265;50.006;9.202;2022-10-16T08:03:32;15.80;99.90
10437;DHT22;5265;50.006;9.202;2022-10-16T08:06:00;15.80;99.90
10437;DHT22;5265;50.006;9.202;2022-10-16T08:08:28;15.80;99.90
10437;DHT22;5265;50.006;9.202;2022-10-16T08:10:55;15.90;1.00
10437;DHT22;5265;50.006;9.202;2022-10-16T08:13:22;15.90;1.00
10437;DHT22;5265;50.006;9.202;2022-10-16T08:15:49;16.00;1.00
10437;DHT22;5265;50.006;9.202;2022-10-16T08:18:17;15.90;1.00
10437;DHT22;5265;50.006;9.202;2022-10-16T08:20:45;16.00;1.00
10437;DHT22;5265;50.006;9.202;2022-10-16T08:23:12;16.00;1.00
10437;DHT22;5265;50.006;9.202;2022-10-16T08:25:39;16.00;1.00
10437;DHT22;5265;50.006;9.202;2022-10-16T08:28:07;16.10;1.00
10437;DHT22;5265;50.006;9.202;2022-10-16T08:30:35;16.10;1.00
10437;DHT22;5265;50.006;9.202;2022-10-16T08:33:02;16.30;1.00
10437;DHT22;5265;50.006;9.202;2022-10-16T08:35:31;16.40;1.00
10437;DHT22;5265;50.006;9.202;2022-10-16T08:37:58;16.50;1.00
10437;DHT22;5265;50.006;9.202;2022-10-16T08:40:26;16.50;99.90
10437;DHT22;5265;50.006;9.202;2022-10-16T08:45:42;16.50;99.90
10437;DHT22;5265;50.006;9.202;2022-10-16T08:48:21;16.60;99.90
10437;DHT22;5265;50.006;9.202;2022-10-16T08:50:53;16.70;1.00
10437;DHT22;5265;50.006;9.202;2022-10-16T08:53:20;16.80;99.90
10437;DHT22;5265;50.006;9.202;2022-10-16T08:55:50;16.90;99.90
10437;DHT22;5265;50.006;9.202;2022-10-16T08:58:18;16.90;1.00
10437;DHT22;5265;50.006;9.202;2022-10-16T09:00:46;16.90;1.00
10437;DHT22;5265;50.006;9.202;2022-10-16T09:03:17;16.90;1.00
10437;DHT22;5265;50.006;9.202;2022-10-16T09:08:30;16.90;99.90
10437;DHT22;5265;50.006;9.202;2022-10-16T09:11:03;16.80;99.90
10437;DHT22;5265;50.006;9.202;2022-10-16T09:13:35;16.80;99.90
10437;DHT22;5265;50.006;9.202;2022-10-16T09:16:10;16.70;99.90
10437;DHT22;5265;50.006;9.202;2022-10-16T09:18:41;16.60;1.00
10437;DHT22;5265;50.006;9.202;2022-10-16T09:21:13;16.60;1.00
10437;DHT22;5265;50.006;9.202;2022-10-16T09:23:43;16.50;1.00
10437;DHT22;5265;50.006;9.202;2022-10-16T09:26:11;16.50;99.90
10437;DHT22;5265;50.006;9.202;2022-10-16T09:28:39;16.60;99.90
10437;DHT22;5265;50.006;9.202;2022-10-16T09:31:07;16.60;1.00
10437;DHT22;5265;50.006;9.202;2022-10-16T09:33:37;16.60;1.00
10437;DHT22;5265;50.006;9.202;2022-10-16T09:36:06;16.60;1.00
10437;DHT22;5265;50.006;9.202;2022-10-16T09:38:34;16.60;1.00
10437;DHT22;5265;50.006;9.202;2022-10-16T09:41:03;16.60;1.00
10437;DHT22;5265;50.006;9.202;2022-10-16T09:43:39;16.60;1.00
10437;DHT22;5265;50.006;9.202;2022-10-16T09:46:07;16.70;1.00
10437;DHT22;5265;50.006;9.202;2022-10-16T09:48:36;16.70;1.00
10437;DHT22;5265;50.006;9.202;2022-10-16T09:51:04;16.80;1.00
10437;DHT22;5265;50.006;9.202;2022-10-16T09:53:40;16.80;1.00
10437;DHT22;5265;50.006;9.202;2022-10-16T09:56:09;16.80;1.00
10437;DHT22;5265;50.006;9.202;2022-10-16T09:58:42;16.70;1.00
10437;DHT22;5265;50.006;9.202;2022-10-16T10:01:12;16.80;99.90
10437;DHT22;5265;50.006;9.202;2022-10-16T10:03:41;16.80;99.90
10437;DHT22;5265;50.006;9.202;2022-10-16T10:06:16;16.70;99.90
10437;DHT22;5265;50.006;9.202;2022-10-16T10:09:00;16.70;99.90
10437;DHT22;5265;50.006;9.202;2022-10-16T10:11:46;16.80;99.90
10437;DHT22;5265;50.006;9.202;2022-10-16T10:14:27;16.80;99.90
10437;DHT22;5265;50.006;9.202;2022-10-16T10:17:08;16.90;99.90
10437;DHT22;5265;50.006;9.202;2022-10-16T10:19:39;16.90;99.90
10437;DHT22;5265;50.006;9.202;2022-10-16T10:22:16;17.00;99.90
10437;DHT22;5265;50.006;9.202;2022-10-16T10:24:43;17.10;8.00
10437;DHT22;5265;50.006;9.202;2022-10-16T10:27:13;17.20;24.50
10437;DHT22;5265;50.006;9.202;2022-10-16T10:29:45;17.40;1.00
10437;DHT22;5265;50.006;9.202;2022-10-16T10:32:18;17.40;99.90
10437;DHT22;5265;50.006;9.202;2022-10-16T10:34:54;17.40;1.00
10437;DHT22;5265;50.006;9.202;2022-10-16T10:37:32;17.50;99.90
10437;DHT22;5265;50.006;9.202;2022-10-16T10:40:06;17.50;1.00
10437;DHT22;5265;50.006;9.202;2022-10-16T10:42:39;17.60;1.00
10437;DHT22;5265;50.006;9.202;2022-10-16T10:45:12;17.70;1.00
10437;DHT22;5265;50.006;9.202;2022-10-16T10:47:46;17.80;99.90
10437;DHT22;5265;50.006;9.202;2022-10-16T10:50:17;18.00;99.90
10437;DHT22;5265;50.006;9.202;2022-10-16T10:52:52;18.00;1.00
10437;DHT22;5265;50.006;9.202;2022-10-16T10:55:23;18.10;1.00
10437;DHT22;5265;50.006;9.202;2022-10-16T11:00:49;18.10;1.00
10437;DHT22;5265;50.006;9.202;2022-10-16T11:03:24;18.40;99.90
10437;DHT22;5265;50.006;9.202;2022-10-16T11:05:54;18.50;1.00
10437;DHT22;5265;50.006;9.202;2022-10-16T11:08:25;18.50;49.60
10437;DHT22;5265;50.006;9.202;2022-10-16T11:10:54;18.50;99.90
10437;DHT22;5265;50.006;9.202;2022-10-16T11:13:27;18.50;1.00
10437;DHT22;5265;50.006;9.202;2022-10-16T11:15:57;18.60;99.90
10437;DHT22;5265;50.006;9.202;2022-10-16T11:18:26;18.80;99.90
10437;DHT22;5265;50.006;9.202;2022-10-16T11:20:56;18.70;1.00
10437;DHT22;5265;50.006;9.202;2022-10-16T11:23:25;18.70;1.00
10437;DHT22;5265;50.006;9.202;2022-10-16T11:25:54;18.70;1.00
10437;DHT22;5265;50.006;9.202;2022-10-16T11:28:23;18.70;1.00
10437;DHT22;5265;50.006;9.202;2022-10-16T11:30:54;18.80;1.00
10437;DHT22;5265;50.006;9.202;2022-10-16T11:33:27;18.80;1.00
10437;DHT22;5265;50.006;9.202;2022-10-16T11:36:00;18.90;1.00
10437;DHT22;5265;50.006;9.202;2022-10-16T11:38:30;18.90;99.90
10437;DHT22;5265;50.006;9.202;2022-10-16T11:41:01;19.00;1.00
10437;DHT22;5265;50.006;9.202;2022-10-16T11:43:32;19.20;1.00
10437;DHT22;5265;50.006;9.202;2022-10-16T11:46:03;19.40;1.00
10437;DHT22;5265;50.006;9.202;2022-10-16T11:48:33;19.40;99.90
10437;DHT22;5265;50.006;9.202;2022-10-16T11:51:05;19.50;99.90
10437;DHT22;5265;50.006;9.202;2022-10-16T11:53:38;19.60;99.90
10437;DHT22;5265;50.006;9.202;2022-10-16T11:56:11;19.70;99.90
10437;DHT22;5265;50.006;9.202;2022-10-16T11:58:39;19.70;99.90
10437;DHT22;5265;50.006;9.202;2022-10-16T12:01:13;19.70;99.90
10437;DHT22;5265;50.006;9.202;2022-10-16T12:03:43;19.60;99.90
10437;DHT22;5265;50.006;9.202;2022-10-16T12:06:14;19.50;99.90
10437;DHT22;5265;50.006;9.202;2022-10-16T12:08:46;19.40;99.90
10437;DHT22;5265;50.006;9.202;2022-10-16T12:11:24;19.40;99.90
10437;DHT22;5265;50.006;9.202;2022-10-16T12:14:03;19.40;99.90
10437;DHT22;5265;50.006;9.202;2022-10-16T12:16:31;19.40;99.90
10437;DHT22;5265;50.006;9.202;2022-10-16T12:19:11;19.40;99.90
10437;DHT22;5265;50.006;9.202;2022-10-16T12:21:38;19.40;99.90
10437;DHT22;5265;50.006;9.202;2022-10-16T12:24:06;19.40;99.90
10437;DHT22;5265;50.006;9.202;2022-10-16T12:26:46;19.40;99.90
10437;DHT22;5265;50.006;9.202;2022-10-16T12:29:15;19.40;99.90
10437;DHT22;5265;50.006;9.202;2022-10-16T12:31:47;19.50;99.90
10437;DHT22;5265;50.006;9.202;2022-10-16T12:34:20;19.60;99.90
10437;DHT22;5265;50.006;9.202;2022-10-16T12:36:48;19.70;99.90
10437;DHT22;5265;50.006;9.202;2022-10-16T12:39:20;19.80;99.90
10437;DHT22;5265;50.006;9.202;2022-10-16T12:41:47;19.80;99.90
10437;DHT22;5265;50.006;9.202;2022-10-16T12:44:21;19.80;99.90
10437;DHT22;5265;50.006;9.202;2022-10-16T12:46:49;19.90;99.90
10437;DHT22;5265;50.006;9.202;2022-10-16T12:52:00;19.90;99.90
10437;DHT22;5265;50.006;9.202;2022-10-16T12:54:28;19.80;99.90
10437;DHT22;5265;50.006;9.202;2022-10-16T12:57:00;19.80;99.90
10437;DHT22;5265;50.006;9.202;2022-10-16T12:59:32;19.80;99.90
10437;DHT22;5265;50.006;9.202;2022-10-16T13:02:06;19.80;99.90
10437;DHT22;5265;50.006;9.202;2022-10-16T13:04:54;19.80;99.90
10437;DHT22;5265;50.006;9.202;2022-10-16T13:07:35;19.80;99.90
10437;DHT22;5265;50.006;9.202;2022-10-16T13:10:10;19.80;99.90
10437;DHT22;5265;50.006;9.202;2022-10-16T13:12:46;19.70;99.90
10437;DHT22;5265;50.006;9.202;2022-10-16T13:15:29;19.70;99.90
10437;DHT22;5265;50.006;9.202;2022-10-16T13:18:03;19.90;99.90
10437;DHT22;5265;50.006;9.202;2022-10-16T13:20:35;19.90;99.90
10437;DHT22;5265;50.006;9.202;2022-10-16T13:23:08;20.00;99.90
10437;DHT22;5265;50.006;9.202;2022-10-16T13:25:43;19.90;99.90
10437;DHT22;5265;50.006;9.202;2022-10-16T13:28:12;20.00;99.90
10437;DHT22;5265;50.006;9.202;2022-10-16T13:30:40;19.90;99.90
10437;DHT22;5265;50.006;9.202;2022-10-16T13:33:12;19.80;99.90
10437;DHT22;5265;50.006;9.202;2022-10-16T13:35:46;19.80;99.90
10437;DHT22;5265;50.006;9.202;2022-10-16T13:38:16;19.80;99.90
10437;DHT22;5265;50.006;9.202;2022-10-16T13:40:50;19.90;99.90
10437;DHT22;5265;50.006;9.202;2022-10-16T13:43:18;19.90;99.90
10437;DHT22;5265;50.006;9.202;2022-10-16T13:45:53;19.80;99.90
10437;DHT22;5265;50.006;9.202;2022-10-16T13:48:20;19.90;99.90
10437;DHT22;5265;50.006;9.202;2022-10-16T13:50:57;19.90;99.90
10437;DHT22;5265;50.006;9.202;2022-10-16T13:53:26;20.00;99.90
10437;DHT22;5265;50.006;9.202;2022-10-16T13:55:53;20.10;99.90
10437;DHT22;5265;50.006;9.202;2022-10-16T13:58:20;20.10;99.90
10437;DHT22;5265;50.006;9.202;2022-10-16T14:00:54;20.10;99.90
10437;DHT22;5265;50.006;9.202;2022-10-16T14:03:22;20.00;99.90
10437;DHT22;5265;50.006;9.202;2022-10-16T14:05:49;20.10;99.90
10437;DHT22;5265;50.006;9.202;2022-10-16T14:08:17;20.00;99.90
10437;DHT22;5265;50.006;9.202;2022-10-16T14:10:48;20.00;99.90
10437;DHT22;5265;50.006;9.202;2022-10-16T14:13:17;20.00;99.90
10437;DHT22;5265;50.006;9.202;2022-10-16T14:15:46;20.00;99.90
10437;DHT22;5265;50.006;9.202;2022-10-16T14:18:15;19.90;99.90
10437;DHT22;5265;50.006;9.202;2022-10-16T14:20:45;19.90;99.90
10437;DHT22;5265;50.006;9.202;2022-10-16T14:23:19;19.90;99.90
10437;DHT22;5265;50.006;9.202;2022-10-16T14:25:48;19.90;99.90
10437;DHT22;5265;50.006;9.202;2022-10-16T14:28:17;20.00;99.90
10437;DHT22;5265;50.006;9.202;2022-10-16T14:30:51;19.90;99.90
10437;DHT22;5265;50.006;9.202;2022-10-16T14:33:20;19.80;99.90
10437;DHT22;5265;50.006;9.202;2022-10-16T14:35:56;19.70;99.90
10437;DHT22;5265;50.006;9.202;2022-10-16T14:38:24;19.70;99.90
10437;DHT22;5265;50.006;9.202;2022-10-16T14:40:53;19.70;99.90
10437;DHT22;5265;50.006;9.202;2022-10-16T14:43:22;19.70;99.90
10437;DHT22;5265;50.006;9.202;2022-10-16T14:45:50;19.70;99.90
10437;DHT22;5265;50.006;9.202;2022-10-16T14:48:18;19.70;99.90
10437;DHT22;5265;50.006;9.202;2022-10-16T14:50:46;19.60;99.90
10437;DHT22;5265;50.006;9.202;2022-10-16T14:53:13;19.60;1.00
10437;DHT22;5265;50.006;9.202;2022-10-16T14:55:41;19.60;1.00
10437;DHT22;5265;50.006;9.202;2022-10-16T14:58:11;19.60;1.00
10437;DHT22;5265;50.006;9.202;2022-10-16T15:00:40;19.60;1.00
10437;DHT22;5265;50.006;9.202;2022-10-16T15:03:07;19.60;1.00
10437;DHT22;5265;50.006;9.202;2022-10-16T15:05:35;19.60;1.00
10437;DHT22;5265;50.006;9.202;2022-10-16T15:08:02;19.60;1.00
10437;DHT22;5265;50.006;9.202;2022-10-16T15:10:30;19.50;1.00
10437;DHT22;5265;50.006;9.202;2022-10-16T15:12:58;19.50;1.00
10437;DHT22;5265;50.006;9.202;2022-10-16T15:15:36;19.50;1.00
10437;DHT22;5265;50.006;9.202;2022-10-16T15:18:04;19.50;1.00
10437;DHT22;5265;50.006;9.202;2022-10-16T15:20:32;19.50;1.00
10437;DHT22;5265;50.006;9.202;2022-10-16T15:23:00;19.50;1.00
10437;DHT22;5265;50.006;9.202;2022-10-16T15:25:30;19.50;1.00
10437;DHT22;5265;50.006;9.202;2022-10-16T15:27:58;19.50;1.00
10437;DHT22;5265;50.006;9.202;2022-10-16T15:30:25;19.50;1.00
10437;DHT22;5265;50.006;9.202;2022-10-16T15:32:54;19.60;1.00
10437;DHT22;5265;50.006;9.202;2022-10-16T15:35:22;19.60;1.00
10437;DHT22;5265;50.006;9.202;2022-10-16T15:37:49;19.60;1.00
10437;DHT22;5265;50.006;9.202;2022-10-16T15:40:17;19.50;1.00
10437;DHT22;5265;50.006;9.202;2022-10-16T15:42:44;19.50;1.00
10437;DHT22;5265;50.006;9.202;2022-10-16T15:45:12;19.50;1.00
10437;DHT22;5265;50.006;9.202;2022-10-16T15:47:40;19.40;1.00
10437;DHT22;5265;50.006;9.202;2022-10-16T15:50:10;19.40;1.00
10437;DHT22;5265;50.006;9.202;2022-10-16T15:52:38;19.40;59.60
10437;DHT22;5265;50.006;9.202;2022-10-16T15:55:06;19.40;99.90
10437;DHT22;5265;50.006;9.202;2022-10-16T15:57:33;19.40;99.90
10437;DHT22;5265;50.006;9.202;2022-10-16T16:00:01;19.30;99.90
10437;DHT22;5265;50.006;9.202;2022-10-16T16:02:37;19.30;99.90
10437;DHT22;5265;50.006;9.202;2022-10-16T16:05:05;19.20;99.90
10437;DHT22;5265;50.006;9.202;2022-10-16T16:07:35;19.20;99.90
10437;DHT22;5265;50.006;9.202;2022-10-16T16:10:03;19.20;99.90
10437;DHT22;5265;50.006;9.202;2022-10-16T16:12:30;19.10;99.90
10437;DHT22;5265;50.006;9.202;2022-10-16T16:14:57;19.10;99.90
10437;DHT22;5265;50.006;9.202;2022-10-16T16:17:24;19.00;99.90
10437;DHT22;5265;50.006;9.202;2022-10-16T16:19:52;19.10;99.90
10437;DHT22;5265;50.006;9.202;2022-10-16T16:22:19;19.00;99.90